sensor_id;sensor_type;location;lat;lon;timestamp;P1;durP1;ratioP1;P2;durP2;ratioP2
58294;SDS011;45705;55.592;37.460;2023-01-15T00:00:19;15.77;;;7.90;;
58294;SDS011;45705;55.592;37.460;2023-01-15T00:02:45;20.55;;;9.30;;
58294;SDS011;45705;55.592;37.460;2023-01-15T00:05:10;16.20;;;8.32;;
58294;SDS011;45705;55.592;37.460;2023-01-15T00:07:36;17.27;;;9.05;;
58294;SDS011;45705;55.592;37.460;2023-01-15T00:10:02;13.05;;;6.97;;
58294;SDS011;45705;55.592;37.460;2023-01-15T00:12:29;19.42;;;8.82;;
58294;SDS011;45705;55.592;37.460;2023-01-15T00:14:54;24.58;;;8.73;;
58294;SDS011;45705;55.592;37.460;2023-01-15T00:17:22;18.90;;;9.63;;
58294;SDS011;45705;55.592;37.460;2023-01-15T00:19:48;22.45;;;10.55;;
58294;SDS011;45705;55.592;37.460;2023-01-15T00:22:13;30.02;;;10.90;;
58294;SDS011;45705;55.592;37.460;2023-01-15T00:24:39;16.95;;;7.82;;
58294;SDS011;45705;55.592;37.460;2023-01-15T00:27:30;22.15;;;8.77;;
58294;SDS011;45705;55.592;37.460;2023-01-15T00:30:05;18.33;;;8.00;;
58294;SDS011;45705;55.592;37.460;2023-01-15T00:32:36;21.30;;;8.88;;
58294;SDS011;45705;55.592;37.460;2023-01-15T00:35:03;16.65;;;7.13;;
58294;SDS011;45705;55.592;37.460;2023-01-15T00:37:29;18.80;;;8.35;;
58294;SDS011;45705;55.592;37.460;2023-01-15T00:39:55;22.45;;;9.38;;
58294;SDS011;45705;55.592;37.460;2023-01-15T00:42:20;17.55;;;8.68;;
58294;SDS011;45705;55.592;37.460;2023-01-15T00:44:46;19.10;;;7.32;;
58294;SDS011;45705;55.592;37.460;2023-01-15T00:47:12;15.30;;;7.75;;
58294;SDS011;45705;55.592;37.460;2023-01-15T00:49:39;18.27;;;8.77;;
58294;SDS011;45705;55.592;37.460;2023-01-15T00:52:06;18.60;;;9.48;;
58294;SDS011;45705;55.592;37.460;2023-01-15T00:54:32;15.65;;;8.68;;
58294;SDS011;45705;55.592;37.460;2023-01-15T00:56:58;15.82;;;7.28;;
58294;SDS011;45705;55.592;37.460;2023-01-15T00:59:24;24.10;;;9.90;;
58294;SDS011;45705;55.592;37.460;2023-01-15T01:01:50;19.02;;;7.47;;
58294;SDS011;45705;55.592;37.460;2023-01-15T01:04:16;20.52;;;9.20;;
58294;SDS011;45705;55.592;37.460;2023-01-15T01:06:42;18.88;;;8.48;;
58294;SDS011;45705;55.592;37.460;2023-01-15T01:09:11;15.48;;;7.95;;
58294;SDS011;45705;55.592;37.460;2023-01-15T01:11:38;19.23;;;8.90;;
58294;SDS011;45705;55.592;37.460;2023-01-15T01:14:04;19.90;;;9.00;;
58294;SDS011;45705;55.592;37.460;2023-01-15T01:16:30;23.98;;;7.25;;
58294;SDS011;45705;55.592;37.460;2023-01-15T01:19:01;26.52;;;9.27;;
58294;SDS011;45705;55.592;37.460;2023-01-15T01:21:29;32.40;;;9.23;;
58294;SDS011;45705;55.592;37.460;2023-01-15T01:23:57;16.47;;;8.60;;
58294;SDS011;45705;55.592;37.460;2023-01-15T01:26:24;19.95;;;9.38;;
58294;SDS011;45705;55.592;37.460;2023-01-15T01:28:51;20.23;;;8.65;;
58294;SDS011;45705;55.592;37.460;2023-01-15T01:31:17;21.63;;;10.80;;
58294;SDS011;45705;55.592;37.460;2023-01-15T01:33:48;20.98;;;9.43;;
58294;SDS011;45705;55.592;37.460;2023-01-15T01:36:15;21.38;;;9.60;;
58294;SDS011;45705;55.592;37.460;2023-01-15T01:38:42;20.52;;;8.50;;
58294;SDS011;45705;55.592;37.460;2023-01-15T01:41:09;20.40;;;7.78;;
58294;SDS011;45705;55.592;37.460;2023-01-15T01:43:50;27.75;;;10.40;;
58294;SDS011;45705;55.592;37.460;2023-01-15T01:46:17;21.23;;;8.68;;
58294;SDS011;45705;55.592;37.460;2023-01-15T01:48:43;19.48;;;9.10;;
58294;SDS011;45705;55.592;37.460;2023-01-15T01:51:10;18.60;;;8.55;;
58294;SDS011;45705;55.592;37.460;2023-01-15T01:53:37;21.48;;;9.05;;
58294;SDS011;45705;55.592;37.460;2023-01-15T01:56:03;21.05;;;7.95;;
58294;SDS011;45705;55.592;37.460;2023-01-15T01:58:33;19.02;;;8.15;;
58294;SDS011;45705;55.592;37.460;2023-01-15T02:01:00;17.02;;;8.55;;
58294;SDS011;45705;55.592;37.460;2023-01-15T02:03:28;19.60;;;8.27;;
58294;SDS011;45705;55.592;37.460;2023-01-15T02:06:02;23.98;;;6.10;;
58294;SDS011;45705;55.592;37.460;2023-01-15T02:10:57;21.17;;;7.38;;
58294;SDS011;45705;55.592;37.460;2023-01-15T02:16:30;17.10;;;7.68;;
58294;SDS011;45705;55.592;37.460;2023-01-15T02:19:01;22.73;;;8.20;;
58294;SDS011;45705;55.592;37.460;2023-01-15T02:29:30;14.55;;;6.47;;
58294;SDS011;45705;55.592;37.460;2023-01-15T02:32:33;17.10;;;5.68;;
58294;SDS011;45705;55.592;37.460;2023-01-15T02:35:11;24.33;;;8.93;;
58294;SDS011;45705;55.592;37.460;2023-01-15T02:37:44;21.45;;;8.82;;
58294;SDS011;45705;55.592;37.460;2023-01-15T02:40:15;21.02;;;7.40;;
58294;SDS011;45705;55.592;37.460;2023-01-15T02:42:45;22.98;;;7.57;;
58294;SDS011;45705;55.592;37.460;2023-01-15T02:45:14;30.00;;;9.43;;
58294;SDS011;45705;55.592;37.460;2023-01-15T02:47:49;20.25;;;8.38;;
58294;SDS011;45705;55.592;37.460;2023-01-15T02:50:17;22.95;;;9.60;;
58294;SDS011;45705;55.592;37.460;2023-01-15T02:52:48;17.30;;;8.77;;
58294;SDS011;45705;55.592;37.460;2023-01-15T02:55:23;18.77;;;7.57;;
58294;SDS011;45705;55.592;37.460;2023-01-15T02:57:54;17.13;;;8.90;;
58294;SDS011;45705;55.592;37.460;2023-01-15T03:00:25;21.90;;;6.90;;
58294;SDS011;45705;55.592;37.460;2023-01-15T03:03:16;21.70;;;9.32;;
58294;SDS011;45705;55.592;37.460;2023-01-15T03:05:53;23.67;;;8.07;;
58294;SDS011;45705;55.592;37.460;2023-01-15T03:08:24;15.95;;;8.50;;
58294;SDS011;45705;55.592;37.460;2023-01-15T03:11:02;13.18;;;6.80;;
58294;SDS011;45705;55.592;37.460;2023-01-15T03:24:14;21.05;;;7.97;;
58294;SDS011;45705;55.592;37.460;2023-01-15T03:26:48;26.33;;;10.48;;
58294;SDS011;45705;55.592;37.460;2023-01-15T03:29:13;22.70;;;9.05;;
58294;SDS011;45705;55.592;37.460;2023-01-15T03:31:40;20.75;;;8.88;;
58294;SDS011;45705;55.592;37.460;2023-01-15T03:34:06;27.30;;;10.98;;
58294;SDS011;45705;55.592;37.460;2023-01-15T03:36:33;24.77;;;10.32;;
58294;SDS011;45705;55.592;37.460;2023-01-15T03:39:00;26.17;;;9.23;;
58294;SDS011;45705;55.592;37.460;2023-01-15T03:41:53;16.45;;;8.45;;
58294;SDS011;45705;55.592;37.460;2023-01-15T03:52:42;25.98;;;9.02;;
58294;SDS011;45705;55.592;37.460;2023-01-15T03:55:17;20.23;;;9.20;;
58294;SDS011;45705;55.592;37.460;2023-01-15T03:58:08;23.77;;;9.18;;
58294;SDS011;45705;55.592;37.460;2023-01-15T04:00:45;18.90;;;8.68;;
58294;SDS011;45705;55.592;37.460;2023-01-15T04:03:13;26.02;;;9.43;;
58294;SDS011;45705;55.592;37.460;2023-01-15T04:05:40;23.30;;;9.13;;
58294;SDS011;45705;55.592;37.460;2023-01-15T04:08:08;23.15;;;8.27;;
58294;SDS011;45705;55.592;37.460;2023-01-15T04:10:34;23.63;;;9.38;;
58294;SDS011;45705;55.592;37.460;2023-01-15T04:13:02;19.05;;;8.25;;
58294;SDS011;45705;55.592;37.460;2023-01-15T04:15:28;18.70;;;8.15;;
58294;SDS011;45705;55.592;37.460;2023-01-15T04:17:54;28.33;;;10.10;;
58294;SDS011;45705;55.592;37.460;2023-01-15T04:20:21;28.73;;;9.65;;
58294;SDS011;45705;55.592;37.460;2023-01-15T04:22:47;20.67;;;8.35;;
58294;SDS011;45705;55.592;37.460;2023-01-15T04:25:13;20.95;;;9.25;;
58294;SDS011;45705;55.592;37.460;2023-01-15T04:27:54;19.45;;;7.22;;
58294;SDS011;45705;55.592;37.460;2023-01-15T04:30:19;26.98;;;10.23;;
58294;SDS011;45705;55.592;37.460;2023-01-15T04:32:49;31.77;;;10.05;;
58294;SDS011;45705;55.592;37.460;2023-01-15T04:35:16;19.75;;;8.55;;
58294;SDS011;45705;55.592;37.460;2023-01-15T04:37:43;23.85;;;9.25;;
58294;SDS011;45705;55.592;37.460;2023-01-15T04:40:09;31.38;;;10.70;;
58294;SDS011;45705;55.592;37.460;2023-01-15T04:42:55;24.73;;;8.07;;
58294;SDS011;45705;55.592;37.460;2023-01-15T04:45:41;29.20;;;8.90;;
58294;SDS011;45705;55.592;37.460;2023-01-15T04:48:08;24.17;;;8.85;;
58294;SDS011;45705;55.592;37.460;2023-01-15T04:50:33;25.27;;;9.30;;
58294;SDS011;45705;55.592;37.460;2023-01-15T04:52:59;24.90;;;7.70;;
58294;SDS011;45705;55.592;37.460;2023-01-15T04:55:24;33.83;;;9.80;;
58294;SDS011;45705;55.592;37.460;2023-01-15T04:57:50;27.30;;;10.07;;
58294;SDS011;45705;55.592;37.460;2023-01-15T05:00:16;34.25;;;10.48;;
58294;SDS011;45705;55.592;37.460;2023-01-15T05:02:42;27.25;;;9.73;;
58294;SDS011;45705;55.592;37.460;2023-01-15T05:05:08;28.60;;;10.85;;
58294;SDS011;45705;55.592;37.460;2023-01-15T05:07:34;22.23;;;7.32;;
58294;SDS011;45705;55.592;37.460;2023-01-15T05:10:00;29.67;;;10.43;;
58294;SDS011;45705;55.592;37.460;2023-01-15T05:12:25;29.80;;;11.15;;
58294;SDS011;45705;55.592;37.460;2023-01-15T05:14:51;29.88;;;8.30;;
58294;SDS011;45705;55.592;37.460;2023-01-15T05:17:17;34.80;;;12.25;;
58294;SDS011;45705;55.592;37.460;2023-01-15T05:19:42;37.65;;;11.82;;
58294;SDS011;45705;55.592;37.460;2023-01-15T05:22:08;33.00;;;10.90;;
58294;SDS011;45705;55.592;37.460;2023-01-15T05:24:34;28.42;;;9.15;;
58294;SDS011;45705;55.592;37.460;2023-01-15T05:27:00;34.28;;;12.23;;
58294;SDS011;45705;55.592;37.460;2023-01-15T05:29:26;42.38;;;12.00;;
58294;SDS011;45705;55.592;37.460;2023-01-15T05:31:52;28.98;;;9.30;;
58294;SDS011;45705;55.592;37.460;2023-01-15T05:34:18;26.60;;;10.52;;
58294;SDS011;45705;55.592;37.460;2023-01-15T05:36:44;32.80;;;11.80;;
58294;SDS011;45705;55.592;37.460;2023-01-15T05:39:09;35.40;;;11.52;;
58294;SDS011;45705;55.592;37.460;2023-01-15T05:41:35;33.97;;;8.27;;
58294;SDS011;45705;55.592;37.460;2023-01-15T05:44:14;35.55;;;12.18;;
58294;SDS011;45705;55.592;37.460;2023-01-15T05:46:42;30.63;;;11.82;;
58294;SDS011;45705;55.592;37.460;2023-01-15T05:49:10;33.28;;;10.38;;
58294;SDS011;45705;55.592;37.460;2023-01-15T05:51:37;23.17;;;6.93;;
58294;SDS011;45705;55.592;37.460;2023-01-15T05:54:05;26.40;;;9.60;;
58294;SDS011;45705;55.592;37.460;2023-01-15T05:56:33;32.65;;;9.95;;
58294;SDS011;45705;55.592;37.460;2023-01-15T05:59:00;29.95;;;9.88;;
58294;SDS011;45705;55.592;37.460;2023-01-15T06:01:25;26.45;;;9.45;;
58294;SDS011;45705;55.592;37.460;2023-01-15T06:03:51;29.30;;;9.82;;
58294;SDS011;45705;55.592;37.460;2023-01-15T06:06:19;34.17;;;10.05;;
58294;SDS011;45705;55.592;37.460;2023-01-15T06:08:45;25.60;;;9.52;;
58294;SDS011;45705;55.592;37.460;2023-01-15T06:11:11;41.42;;;12.40;;
58294;SDS011;45705;55.592;37.460;2023-01-15T06:13:38;32.85;;;11.02;;
58294;SDS011;45705;55.592;37.460;2023-01-15T06:16:04;26.67;;;9.57;;
58294;SDS011;45705;55.592;37.460;2023-01-15T06:18:31;38.22;;;9.88;;
58294;SDS011;45705;55.592;37.460;2023-01-15T06:21:01;23.88;;;10.38;;
58294;SDS011;45705;55.592;37.460;2023-01-15T06:23:29;34.80;;;11.02;;
58294;SDS011;45705;55.592;37.460;2023-01-15T06:25:58;21.92;;;9.35;;
58294;SDS011;45705;55.592;37.460;2023-01-15T06:28:25;30.65;;;11.15;;
58294;SDS011;45705;55.592;37.460;2023-01-15T06:30:52;24.75;;;9.25;;
58294;SDS011;45705;55.592;37.460;2023-01-15T06:33:18;29.80;;;12.00;;
58294;SDS011;45705;55.592;37.460;2023-01-15T06:35:44;20.67;;;8.18;;
58294;SDS011;45705;55.592;37.460;2023-01-15T06:38:09;40.42;;;12.00;;
58294;SDS011;45705;55.592;37.460;2023-01-15T06:40:35;28.08;;;11.38;;
58294;SDS011;45705;55.592;37.460;2023-01-15T06:43:01;34.70;;;11.45;;
58294;SDS011;45705;55.592;37.460;2023-01-15T06:45:46;28.83;;;11.13;;
58294;SDS011;45705;55.592;37.460;2023-01-15T06:48:30;21.13;;;7.80;;
58294;SDS011;45705;55.592;37.460;2023-01-15T06:50:57;35.22;;;10.82;;
58294;SDS011;45705;55.592;37.460;2023-01-15T06:53:23;31.20;;;11.27;;
58294;SDS011;45705;55.592;37.460;2023-01-15T06:55:49;27.83;;;10.00;;
58294;SDS011;45705;55.592;37.460;2023-01-15T06:58:15;38.40;;;11.65;;
58294;SDS011;45705;55.592;37.460;2023-01-15T07:00:41;16.67;;;7.93;;
58294;SDS011;45705;55.592;37.460;2023-01-15T07:03:09;33.40;;;12.20;;
58294;SDS011;45705;55.592;37.460;2023-01-15T07:05:38;24.73;;;9.73;;
58294;SDS011;45705;55.592;37.460;2023-01-15T07:08:06;33.88;;;10.77;;
58294;SDS011;45705;55.592;37.460;2023-01-15T07:10:32;28.10;;;10.98;;
58294;SDS011;45705;55.592;37.460;2023-01-15T07:12:59;32.95;;;11.98;;
58294;SDS011;45705;55.592;37.460;2023-01-15T07:15:25;23.67;;;10.23;;
58294;SDS011;45705;55.592;37.460;2023-01-15T07:17:54;24.25;;;10.73;;
58294;SDS011;45705;55.592;37.460;2023-01-15T07:20:20;31.17;;;10.85;;
58294;SDS011;45705;55.592;37.460;2023-01-15T07:22:50;30.00;;;10.48;;
58294;SDS011;45705;55.592;37.460;2023-01-15T07:25:16;30.02;;;11.05;;
58294;SDS011;45705;55.592;37.460;2023-01-15T07:27:42;26.48;;;10.77;;
58294;SDS011;45705;55.592;37.460;2023-01-15T07:30:11;32.20;;;12.10;;
58294;SDS011;45705;55.592;37.460;2023-01-15T07:32:37;28.65;;;10.00;;
58294;SDS011;45705;55.592;37.460;2023-01-15T07:35:02;28.15;;;10.57;;
58294;SDS011;45705;55.592;37.460;2023-01-15T07:37:29;29.05;;;8.73;;
58294;SDS011;45705;55.592;37.460;2023-01-15T07:39:55;27.17;;;9.27;;
58294;SDS011;45705;55.592;37.460;2023-01-15T07:42:21;30.42;;;11.63;;
58294;SDS011;45705;55.592;37.460;2023-01-15T07:45:07;27.98;;;9.02;;
58294;SDS011;45705;55.592;37.460;2023-01-15T07:47:52;38.65;;;12.25;;
58294;SDS011;45705;55.592;37.460;2023-01-15T07:50:36;26.52;;;9.82;;
58294;SDS011;45705;55.592;37.460;2023-01-15T07:53:03;39.65;;;12.48;;
58294;SDS011;45705;55.592;37.460;2023-01-15T07:55:28;27.58;;;9.85;;
58294;SDS011;45705;55.592;37.460;2023-01-15T07:57:54;31.50;;;12.13;;
58294;SDS011;45705;55.592;37.460;2023-01-15T08:00:21;25.58;;;10.30;;
58294;SDS011;45705;55.592;37.460;2023-01-15T08:02:49;36.58;;;10.95;;
58294;SDS011;45705;55.592;37.460;2023-01-15T08:05:15;29.33;;;12.60;;
58294;SDS011;45705;55.592;37.460;2023-01-15T08:07:42;31.00;;;12.27;;
58294;SDS011;45705;55.592;37.460;2023-01-15T08:10:09;29.52;;;10.00;;
58294;SDS011;45705;55.592;37.460;2023-01-15T08:12:36;19.67;;;8.68;;
58294;SDS011;45705;55.592;37.460;2023-01-15T08:15:21;29.73;;;10.80;;
58294;SDS011;45705;55.592;37.460;2023-01-15T08:17:47;29.90;;;10.50;;
58294;SDS011;45705;55.592;37.460;2023-01-15T08:20:15;30.15;;;11.43;;
58294;SDS011;45705;55.592;37.460;2023-01-15T08:22:43;29.95;;;11.40;;
58294;SDS011;45705;55.592;37.460;2023-01-15T08:25:10;22.13;;;10.05;;
58294;SDS011;45705;55.592;37.460;2023-01-15T08:30:05;31.73;;;11.05;;
58294;SDS011;45705;55.592;37.460;2023-01-15T08:32:33;30.13;;;12.25;;
58294;SDS011;45705;55.592;37.460;2023-01-15T08:34:59;28.75;;;11.57;;
58294;SDS011;45705;55.592;37.460;2023-01-15T08:37:26;34.00;;;11.82;;
58294;SDS011;45705;55.592;37.460;2023-01-15T08:39:51;28.02;;;11.77;;
58294;SDS011;45705;55.592;37.460;2023-01-15T08:42:20;29.30;;;12.07;;
58294;SDS011;45705;55.592;37.460;2023-01-15T08:44:47;30.13;;;10.85;;
58294;SDS011;45705;55.592;37.460;2023-01-15T08:47:13;30.60;;;10.63;;
58294;SDS011;45705;55.592;37.460;2023-01-15T08:49:40;23.67;;;9.68;;
58294;SDS011;45705;55.592;37.460;2023-01-15T08:52:06;25.45;;;8.75;;
58294;SDS011;45705;55.592;37.460;2023-01-15T08:54:32;26.48;;;11.90;;
58294;SDS011;45705;55.592;37.460;2023-01-15T08:56:58;27.10;;;12.13;;
58294;SDS011;45705;55.592;37.460;2023-01-15T08:59:25;26.45;;;11.07;;
58294;SDS011;45705;55.592;37.460;2023-01-15T09:01:51;25.02;;;9.77;;
58294;SDS011;45705;55.592;37.460;2023-01-15T09:04:17;30.27;;;11.90;;
58294;SDS011;45705;55.592;37.460;2023-01-15T09:06:45;23.67;;;9.50;;
58294;SDS011;45705;55.592;37.460;2023-01-15T09:09:11;23.88;;;10.25;;
58294;SDS011;45705;55.592;37.460;2023-01-15T09:11:37;22.40;;;10.52;;
58294;SDS011;45705;55.592;37.460;2023-01-15T09:14:10;36.38;;;10.77;;
58294;SDS011;45705;55.592;37.460;2023-01-15T09:16:37;21.48;;;9.48;;
58294;SDS011;45705;55.592;37.460;2023-01-15T09:19:03;24.20;;;10.63;;
58294;SDS011;45705;55.592;37.460;2023-01-15T09:21:30;30.45;;;11.52;;
58294;SDS011;45705;55.592;37.460;2023-01-15T09:23:56;26.33;;;11.68;;
58294;SDS011;45705;55.592;37.460;2023-01-15T09:26:31;23.80;;;8.50;;
58294;SDS011;45705;55.592;37.460;2023-01-15T09:29:00;29.83;;;10.00;;
58294;SDS011;45705;55.592;37.460;2023-01-15T09:31:26;19.40;;;9.68;;
58294;SDS011;45705;55.592;37.460;2023-01-15T09:33:52;26.65;;;9.70;;
58294;SDS011;45705;55.592;37.460;2023-01-15T09:36:19;29.17;;;11.50;;
58294;SDS011;45705;55.592;37.460;2023-01-15T09:38:48;26.40;;;10.32;;
58294;SDS011;45705;55.592;37.460;2023-01-15T09:41:14;23.35;;;10.00;;
58294;SDS011;45705;55.592;37.460;2023-01-15T09:52:04;28.40;;;10.18;;
58294;SDS011;45705;55.592;37.460;2023-01-15T09:57:14;25.67;;;8.93;;
58294;SDS011;45705;55.592;37.460;2023-01-15T09:59:43;27.02;;;9.52;;
58294;SDS011;45705;55.592;37.460;2023-01-15T10:07:57;24.58;;;10.25;;
58294;SDS011;45705;55.592;37.460;2023-01-15T10:10:25;22.40;;;9.63;;
58294;SDS011;45705;55.592;37.460;2023-01-15T10:12:56;22.52;;;8.48;;
58294;SDS011;45705;55.592;37.460;2023-01-15T10:18:16;22.58;;;9.70;;
58294;SDS011;45705;55.592;37.460;2023-01-15T10:23:41;16.92;;;7.40;;
58294;SDS011;45705;55.592;37.460;2023-01-15T10:26:44;30.55;;;9.02;;
58294;SDS011;45705;55.592;37.460;2023-01-15T10:29:39;21.48;;;8.85;;
58294;SDS011;45705;55.592;37.460;2023-01-15T10:37:14;13.90;;;6.75;;
58294;SDS011;45705;55.592;37.460;2023-01-15T10:45:26;24.25;;;8.73;;
58294;SDS011;45705;55.592;37.460;2023-01-15T10:48:18;26.67;;;8.15;;
58294;SDS011;45705;55.592;37.460;2023-01-15T10:50:47;20.63;;;7.28;;
58294;SDS011;45705;55.592;37.460;2023-01-15T11:01:58;26.63;;;8.25;;
58294;SDS011;45705;55.592;37.460;2023-01-15T11:04:26;20.13;;;7.53;;
58294;SDS011;45705;55.592;37.460;2023-01-15T11:06:55;16.38;;;6.57;;
58294;SDS011;45705;55.592;37.460;2023-01-15T11:09:22;20.75;;;8.40;;
58294;SDS011;45705;55.592;37.460;2023-01-15T11:12:02;20.52;;;8.45;;
58294;SDS011;45705;55.592;37.460;2023-01-15T11:14:49;14.90;;;5.65;;
58294;SDS011;45705;55.592;37.460;2023-01-15T11:17:37;15.93;;;7.05;;
58294;SDS011;45705;55.592;37.460;2023-01-15T11:20:33;18.48;;;7.22;;
58294;SDS011;45705;55.592;37.460;2023-01-15T11:23:14;15.95;;;7.53;;
58294;SDS011;45705;55.592;37.460;2023-01-15T11:25:54;21.83;;;9.18;;
58294;SDS011;45705;55.592;37.460;2023-01-15T11:31:08;12.65;;;5.45;;
58294;SDS011;45705;55.592;37.460;2023-01-15T11:33:35;22.83;;;6.90;;
58294;SDS011;45705;55.592;37.460;2023-01-15T11:36:03;17.15;;;7.13;;
58294;SDS011;45705;55.592;37.460;2023-01-15T11:38:44;24.05;;;7.05;;
58294;SDS011;45705;55.592;37.460;2023-01-15T11:41:45;22.88;;;8.38;;
58294;SDS011;45705;55.592;37.460;2023-01-15T11:44:22;21.90;;;7.72;;
58294;SDS011;45705;55.592;37.460;2023-01-15T11:47:10;17.02;;;6.07;;
58294;SDS011;45705;55.592;37.460;2023-01-15T11:50:00;17.90;;;6.72;;
58294;SDS011;45705;55.592;37.460;2023-01-15T11:52:47;23.15;;;7.47;;
58294;SDS011;45705;55.592;37.460;2023-01-15T11:55:21;15.57;;;7.28;;
58294;SDS011;45705;55.592;37.460;2023-01-15T11:57:50;20.08;;;6.30;;
58294;SDS011;45705;55.592;37.460;2023-01-15T12:00:21;16.67;;;7.15;;
58294;SDS011;45705;55.592;37.460;2023-01-15T12:02:58;12.25;;;5.68;;
58294;SDS011;45705;55.592;37.460;2023-01-15T12:05:46;14.55;;;5.90;;
58294;SDS011;45705;55.592;37.460;2023-01-15T12:10:56;17.40;;;6.47;;
58294;SDS011;45705;55.592;37.460;2023-01-15T12:19:27;11.30;;;4.75;;
58294;SDS011;45705;55.592;37.460;2023-01-15T12:24:56;12.38;;;5.50;;
58294;SDS011;45705;55.592;37.460;2023-01-15T12:27:54;15.93;;;5.68;;
58294;SDS011;45705;55.592;37.460;2023-01-15T12:30:28;16.35;;;4.93;;
58294;SDS011;45705;55.592;37.460;2023-01-15T12:35:40;12.48;;;4.72;;
58294;SDS011;45705;55.592;37.460;2023-01-15T12:41:12;16.23;;;5.53;;
58294;SDS011;45705;55.592;37.460;2023-01-15T12:43:42;12.13;;;5.03;;
58294;SDS011;45705;55.592;37.460;2023-01-15T12:46:32;16.67;;;6.15;;
58294;SDS011;45705;55.592;37.460;2023-01-15T12:49:03;14.63;;;6.45;;
58294;SDS011;45705;55.592;37.460;2023-01-15T12:51:40;13.95;;;6.47;;
58294;SDS011;45705;55.592;37.460;2023-01-15T12:54:13;9.98;;;4.47;;
58294;SDS011;45705;55.592;37.460;2023-01-15T12:59:30;14.13;;;6.32;;
58294;SDS011;45705;55.592;37.460;2023-01-15T13:02:27;16.05;;;5.80;;
58294;SDS011;45705;55.592;37.460;2023-01-15T13:05:21;14.02;;;4.95;;
58294;SDS011;45705;55.592;37.460;2023-01-15T13:08:02;15.32;;;5.80;;
58294;SDS011;45705;55.592;37.460;2023-01-15T13:10:34;17.20;;;5.97;;
58294;SDS011;45705;55.592;37.460;2023-01-15T13:13:12;22.23;;;5.90;;
58294;SDS011;45705;55.592;37.460;2023-01-15T13:15:40;13.80;;;6.22;;
58294;SDS011;45705;55.592;37.460;2023-01-15T13:20:55;16.15;;;6.22;;
58294;SDS011;45705;55.592;37.460;2023-01-15T13:31:59;11.85;;;5.50;;
58294;SDS011;45705;55.592;37.460;2023-01-15T13:37:30;18.73;;;5.43;;
58294;SDS011;45705;55.592;37.460;2023-01-15T13:40:00;22.30;;;5.47;;
58294;SDS011;45705;55.592;37.460;2023-01-15T13:42:31;11.88;;;5.50;;
58294;SDS011;45705;55.592;37.460;2023-01-15T13:44:58;18.40;;;5.43;;
58294;SDS011;45705;55.592;37.460;2023-01-15T13:47:30;12.25;;;4.47;;
58294;SDS011;45705;55.592;37.460;2023-01-15T13:49:59;26.30;;;7.65;;
58294;SDS011;45705;55.592;37.460;2023-01-15T13:52:33;18.10;;;6.15;;
58294;SDS011;45705;55.592;37.460;2023-01-15T13:57:43;12.77;;;5.25;;
58294;SDS011;45705;55.592;37.460;2023-01-15T14:02:51;14.32;;;5.43;;
58294;SDS011;45705;55.592;37.460;2023-01-15T14:05:26;13.88;;;6.03;;
58294;SDS011;45705;55.592;37.460;2023-01-15T14:07:53;16.00;;;6.38;;
58294;SDS011;45705;55.592;37.460;2023-01-15T14:10:23;15.05;;;6.10;;
58294;SDS011;45705;55.592;37.460;2023-01-15T14:13:04;15.55;;;6.95;;
58294;SDS011;45705;55.592;37.460;2023-01-15T14:15:51;20.38;;;7.47;;
58294;SDS011;45705;55.592;37.460;2023-01-15T14:35:24;16.67;;;6.55;;
58294;SDS011;45705;55.592;37.460;2023-01-15T14:37:53;14.50;;;6.53;;
58294;SDS011;45705;55.592;37.460;2023-01-15T14:40:26;14.70;;;6.82;;
58294;SDS011;45705;55.592;37.460;2023-01-15T14:42:59;15.07;;;7.40;;
58294;SDS011;45705;55.592;37.460;2023-01-15T14:45:35;15.35;;;6.40;;
58294;SDS011;45705;55.592;37.460;2023-01-15T14:50:44;17.38;;;7.90;;
58294;SDS011;45705;55.592;37.460;2023-01-15T15:00:48;23.98;;;7.43;;
58294;SDS011;45705;55.592;37.460;2023-01-15T15:03:20;14.30;;;6.50;;
58294;SDS011;45705;55.592;37.460;2023-01-15T15:05:54;11.80;;;5.80;;
58294;SDS011;45705;55.592;37.460;2023-01-15T15:08:20;15.80;;;6.78;;
58294;SDS011;45705;55.592;37.460;2023-01-15T15:10:52;16.42;;;6.80;;
58294;SDS011;45705;55.592;37.460;2023-01-15T15:13:29;14.02;;;6.85;;
58294;SDS011;45705;55.592;37.460;2023-01-15T15:16:03;13.55;;;7.45;;
58294;SDS011;45705;55.592;37.460;2023-01-15T15:26:30;14.70;;;6.65;;
58294;SDS011;45705;55.592;37.460;2023-01-15T15:28:59;14.32;;;7.93;;
58294;SDS011;45705;55.592;37.460;2023-01-15T15:31:33;17.55;;;8.20;;
58294;SDS011;45705;55.592;37.460;2023-01-15T15:34:01;13.88;;;7.32;;
58294;SDS011;45705;55.592;37.460;2023-01-15T15:36:28;14.70;;;7.65;;
58294;SDS011;45705;55.592;37.460;2023-01-15T15:38:57;15.60;;;8.02;;
58294;SDS011;45705;55.592;37.460;2023-01-15T15:41:25;23.88;;;8.68;;
58294;SDS011;45705;55.592;37.460;2023-01-15T15:44:16;21.23;;;8.40;;
58294;SDS011;45705;55.592;37.460;2023-01-15T15:47:16;20.33;;;8.15;;
58294;SDS011;45705;55.592;37.460;2023-01-15T15:50:02;15.73;;;6.82;;
58294;SDS011;45705;55.592;37.460;2023-01-15T15:52:28;16.63;;;7.90;;
58294;SDS011;45705;55.592;37.460;2023-01-15T15:55:00;17.45;;;7.75;;
58294;SDS011;45705;55.592;37.460;2023-01-15T15:57:31;17.65;;;7.20;;
58294;SDS011;45705;55.592;37.460;2023-01-15T15:59:59;19.23;;;8.60;;
58294;SDS011;45705;55.592;37.460;2023-01-15T16:05:20;20.60;;;8.75;;
58294;SDS011;45705;55.592;37.460;2023-01-15T16:07:48;16.98;;;8.38;;
58294;SDS011;45705;55.592;37.460;2023-01-15T16:10:16;22.75;;;9.13;;
58294;SDS011;45705;55.592;37.460;2023-01-15T16:12:55;16.05;;;8.85;;
58294;SDS011;45705;55.592;37.460;2023-01-15T16:15:24;16.33;;;7.63;;
58294;SDS011;45705;55.592;37.460;2023-01-15T16:17:54;11.73;;;6.82;;
58294;SDS011;45705;55.592;37.460;2023-01-15T16:20:20;15.35;;;7.30;;
58294;SDS011;45705;55.592;37.460;2023-01-15T16:22:54;18.48;;;7.30;;
58294;SDS011;45705;55.592;37.460;2023-01-15T16:25:29;13.20;;;6.60;;
58294;SDS011;45705;55.592;37.460;2023-01-15T16:28:05;21.05;;;9.05;;
58294;SDS011;45705;55.592;37.460;2023-01-15T16:30:31;16.42;;;8.07;;
58294;SDS011;45705;55.592;37.460;2023-01-15T16:32:59;17.67;;;8.13;;
58294;SDS011;45705;55.592;37.460;2023-01-15T16:35:27;23.95;;;8.20;;
58294;SDS011;45705;55.592;37.460;2023-01-15T16:37:55;16.65;;;7.53;;
58294;SDS011;45705;55.592;37.460;2023-01-15T16:40:27;19.55;;;9.15;;
58294;SDS011;45705;55.592;37.460;2023-01-15T16:46:04;14.80;;;7.40;;
58294;SDS011;45705;55.592;37.460;2023-01-15T16:48:35;16.10;;;8.63;;
58294;SDS011;45705;55.592;37.460;2023-01-15T16:53:59;16.77;;;8.20;;
58294;SDS011;45705;55.592;37.460;2023-01-15T17:01:55;24.10;;;9.98;;
58294;SDS011;45705;55.592;37.460;2023-01-15T17:04:37;18.38;;;9.23;;
58294;SDS011;45705;55.592;37.460;2023-01-15T17:07:06;18.45;;;9.20;;
58294;SDS011;45705;55.592;37.460;2023-01-15T17:09:48;25.15;;;10.13;;
58294;SDS011;45705;55.592;37.460;2023-01-15T17:14:50;18.17;;;9.55;;
58294;SDS011;45705;55.592;37.460;2023-01-15T17:19:45;23.27;;;9.50;;
58294;SDS011;45705;55.592;37.460;2023-01-15T17:22:15;22.85;;;9.95;;
58294;SDS011;45705;55.592;37.460;2023-01-15T17:24:49;19.55;;;9.25;;
58294;SDS011;45705;55.592;37.460;2023-01-15T17:27:16;21.35;;;9.57;;
58294;SDS011;45705;55.592;37.460;2023-01-15T17:29:42;22.40;;;10.57;;
58294;SDS011;45705;55.592;37.460;2023-01-15T17:32:15;24.35;;;9.70;;